createdAt,value
2023-05-19T00:02:09.691Z,99479.56
2023-05-19T00:04:37.922Z,99476.96
2023-05-19T00:07:05.794Z,99476.95
2023-05-19T00:09:33.368Z,99481.28
2023-05-19T00:12:01.285Z,99484.77
2023-05-19T00:14:29.283Z,99485.94
2023-05-19T00:16:58.144Z,99485.19
2023-05-19T00:19:26.538Z,99486.94
2023-05-19T00:21:53.875Z,99488.10
2023-05-19T00:24:21.246Z,99488.94
2023-05-19T00:26:48.681Z,99486.19
2023-05-19T00:29:18.906Z,99489.33
2023-05-19T00:31:46.958Z,99488.06
2023-05-19T00:34:14.440Z,99489.86
2023-05-19T00:36:41.994Z,99491.82
2023-05-19T00:39:09.244Z,99484.41
2023-05-19T00:41:36.832Z,99488.20
2023-05-19T00:44:04.444Z,99487.86
2023-05-19T00:46:31.559Z,99485.26
2023-05-19T00:48:59.289Z,99491.14
2023-05-19T00:51:27.075Z,99490.55
2023-05-19T00:53:54.477Z,99498.02
2023-05-19T00:56:21.943Z,99495.23
2023-05-19T00:58:53.508Z,99503.66
2023-05-19T01:01:21.881Z,99505.70
2023-05-19T01:03:50.713Z,99498.85
2023-05-19T01:06:19.482Z,99497.27
2023-05-19T01:08:47.122Z,99499.11
2023-05-19T01:11:14.481Z,99494.20
2023-05-19T01:13:42.178Z,99490.39
2023-05-19T01:16:14.806Z,99486.73
2023-05-19T01:19:11.151Z,99489.08
2023-05-19T01:21:54.090Z,99486.75
2023-05-19T01:24:59.108Z,99490.73
2023-05-19T01:28:05.272Z,99489.69
2023-05-19T01:30:43.178Z,99490.36
2023-05-19T01:33:14.426Z,99493.71
2023-05-19T01:35:42.742Z,99491.33
2023-05-19T01:38:11.121Z,99497.16
2023-05-19T01:40:42.031Z,99497.45
2023-05-19T01:43:12.145Z,99499.31
2023-05-19T01:45:39.509Z,99495.26
2023-05-19T01:48:09.244Z,99495.86
2023-05-19T01:50:39.978Z,99494.16
2023-05-19T01:53:07.250Z,99488.63
2023-05-19T01:55:44.891Z,99491.79
2023-05-19T01:58:15.414Z,99491.66
2023-05-19T02:01:14.434Z,99495.51
2023-05-19T02:04:00.271Z,99501.45
2023-05-19T02:06:39.632Z,99505.00
2023-05-19T02:09:26.706Z,99510.41
2023-05-19T02:12:04.753Z,99513.04
2023-05-19T02:14:46.074Z,99512.92
2023-05-19T02:17:13.793Z,99509.75
2023-05-19T02:19:41.659Z,99516.09
2023-05-19T02:22:08.606Z,99517.45
2023-05-19T02:24:37.799Z,99520.04
2023-05-19T02:27:05.468Z,99519.15
2023-05-19T02:29:32.613Z,99524.13
2023-05-19T02:32:01.276Z,99520.38
2023-05-19T02:34:28.356Z,99523.98
2023-05-19T02:36:56.598Z,99528.10
2023-05-19T02:39:23.479Z,99522.87
2023-05-19T02:41:51.737Z,99523.83
2023-05-19T02:44:18.990Z,99524.95
2023-05-19T02:46:46.229Z,99527.91
2023-05-19T02:49:13.394Z,99527.62
2023-05-19T02:51:40.479Z,99529.17
2023-05-19T02:54:07.605Z,99532.27
2023-05-19T02:56:34.741Z,99533.34
2023-05-19T02:59:02.075Z,99532.06
2023-05-19T03:01:29.290Z,99539.26
2023-05-19T03:03:56.773Z,99541.48
2023-05-19T03:06:24.665Z,99540.43
2023-05-19T03:08:51.746Z,99543.70
2023-05-19T03:11:18.875Z,99547.09
2023-05-19T03:13:46.633Z,99546.39
2023-05-19T03:16:14.281Z,99543.25
2023-05-19T03:18:42.215Z,99544.05
2023-05-19T03:21:09.512Z,99546.47
2023-05-19T03:23:36.922Z,99544.65
2023-05-19T03:26:04.628Z,99545.09
2023-05-19T03:28:31.818Z,99548.93
2023-05-19T03:30:59.461Z,99547.11
2023-05-19T03:33:30.213Z,99545.05
2023-05-19T03:35:57.956Z,99547.92
2023-05-19T03:38:25.921Z,99546.95
2023-05-19T03:40:57.360Z,99547.45
2023-05-19T03:43:24.818Z,99548.81
2023-05-19T03:45:58.135Z,99547.52
2023-05-19T03:48:49.891Z,99547.26
2023-05-19T03:51:23.439Z,99550.66
2023-05-19T03:53:52.901Z,99547.55
2023-05-19T03:56:23.436Z,99547.55
2023-05-19T03:58:51.129Z,99545.89
2023-05-19T04:01:19.136Z,99548.17
2023-05-19T04:03:46.873Z,99546.10
2023-05-19T04:06:14.043Z,99543.67
2023-05-19T04:08:41.059Z,99541.27
2023-05-19T04:11:08.045Z,99544.57
2023-05-19T04:13:36.471Z,99548.64
2023-05-19T04:16:03.599Z,99550.02
2023-05-19T04:18:30.924Z,99552.27
2023-05-19T04:20:58.169Z,99554.60
2023-05-19T04:23:26.152Z,99553.33
2023-05-19T04:25:54.805Z,99553.16
2023-05-19T04:28:22.248Z,99554.44
2023-05-19T04:30:51.063Z,99551.89
2023-05-19T04:33:20.437Z,99551.05
2023-05-19T04:35:50.559Z,99550.23
2023-05-19T04:38:20.573Z,99552.29
2023-05-19T04:40:50.509Z,99555.23
2023-05-19T04:43:19.708Z,99550.60
2023-05-19T04:45:50.523Z,99551.28
2023-05-19T04:48:19.191Z,99557.81
2023-05-19T04:50:49.086Z,99559.01
2023-05-19T04:53:16.069Z,99554.25
2023-05-19T04:55:43.318Z,99549.38
2023-05-19T04:58:10.785Z,99547.14
2023-05-19T05:00:38.030Z,99548.96
2023-05-19T05:03:07.785Z,99553.60
2023-05-19T05:38:11.998Z,99563.85
2023-05-19T05:40:39.862Z,99564.09
2023-05-19T05:43:09.452Z,99563.19
2023-05-19T05:45:42.085Z,99566.06
2023-05-19T05:48:10.284Z,99566.84
2023-05-19T05:50:38.336Z,99570.95
2023-05-19T05:53:07.236Z,99567.63
2023-05-19T05:55:35.479Z,99566.98
2023-05-19T05:58:03.985Z,99564.41
2023-05-19T06:00:32.105Z,99565.55
2023-05-19T06:03:00.303Z,99565.50
2023-05-19T06:05:28.313Z,99566.10
2023-05-19T06:07:57.292Z,99567.55
2023-05-19T06:10:26.525Z,99567.13
2023-05-19T06:12:53.950Z,99570.85
2023-05-19T06:15:22.482Z,99568.05
2023-05-19T06:18:03.031Z,99572.73
2023-05-19T06:20:31.008Z,99573.49
2023-05-19T06:23:00.724Z,99573.60
2023-05-19T06:25:28.583Z,99573.48
2023-05-19T06:27:56.198Z,99573.55
2023-05-19T06:30:23.974Z,99572.98
2023-05-19T06:32:59.293Z,99572.42
2023-05-19T06:35:27.074Z,99576.81
2023-05-19T06:37:56.069Z,99574.95
2023-05-19T06:40:23.928Z,99575.20
2023-05-19T06:42:51.592Z,99573.49
2023-05-19T06:45:33.192Z,99576.61
2023-05-19T06:48:02.221Z,99575.77
2023-05-19T06:50:30.237Z,99576.56
2023-05-19T06:52:58.726Z,99574.34
2023-05-19T06:55:26.546Z,99576.89
2023-05-19T06:57:54.146Z,99574.84
2023-05-19T07:00:23.818Z,99575.86
2023-05-19T07:02:53.227Z,99576.06
2023-05-19T07:05:21.431Z,99575.89
2023-05-19T07:07:52.692Z,99573.85
2023-05-19T07:10:23.098Z,99575.55
2023-05-19T07:12:50.888Z,99572.14
2023-05-19T07:15:18.953Z,99573.48
2023-05-19T07:17:46.745Z,99571.25
2023-05-19T07:20:14.475Z,99574.09
2023-05-19T07:22:41.924Z,99568.63
2023-05-19T07:25:09.890Z,99569.16
2023-05-19T07:27:37.610Z,99569.90
2023-05-19T07:30:05.758Z,99571.87
2023-05-19T07:32:33.394Z,99565.06
2023-05-19T07:35:00.881Z,99563.52
2023-05-19T07:37:28.322Z,99561.13
2023-05-19T07:39:55.865Z,99557.95
2023-05-19T07:42:23.777Z,99559.84
2023-05-19T07:44:51.533Z,99553.32
2023-05-19T07:47:18.985Z,99551.62
2023-05-19T07:49:46.532Z,99556.55
2023-05-19T07:52:14.273Z,99550.22
2023-05-19T07:54:41.871Z,99546.95
2023-05-19T07:57:09.383Z,99546.56
2023-05-19T07:59:37.352Z,99545.63
2023-05-19T08:02:05.359Z,99546.83
2023-05-19T08:04:33.259Z,99545.27
2023-05-19T08:07:00.951Z,99543.94
2023-05-19T08:09:28.409Z,99547.09
2023-05-19T08:11:56.382Z,99545.80
2023-05-19T08:14:24.350Z,99545.78
2023-05-19T08:16:52.024Z,99539.23
2023-05-19T08:19:19.762Z,99535.52
2023-05-19T08:21:48.769Z,99538.38
2023-05-19T08:24:16.538Z,99539.80
2023-05-19T08:26:44.600Z,99539.70
2023-05-19T08:29:12.685Z,99532.69
2023-05-19T08:31:41.190Z,99528.98
2023-05-19T08:34:08.674Z,99535.11
2023-05-19T08:36:36.208Z,99533.55
2023-05-19T08:39:04.037Z,99532.94
2023-05-19T08:41:31.501Z,99524.59
2023-05-19T08:43:58.962Z,99529.33
2023-05-19T08:46:27.103Z,99531.66
2023-05-19T08:48:55.707Z,99529.11
2023-05-19T08:51:41.942Z,99522.27
2023-05-19T08:54:18.186Z,99524.70
2023-05-19T08:56:46.047Z,99529.23
2023-05-19T08:59:14.403Z,99528.30
2023-05-19T09:01:43.552Z,99527.23
2023-05-19T09:04:10.928Z,99525.71
2023-05-19T09:06:41.341Z,99528.63
2023-05-19T09:09:08.973Z,99525.51
2023-05-19T09:11:37.950Z,99521.48
2023-05-19T09:14:06.060Z,99522.45
2023-05-19T09:16:34.271Z,99519.55
2023-05-19T09:19:02.195Z,99518.16
2023-05-19T09:21:32.893Z,99518.15
2023-05-19T09:24:08.084Z,99508.71
2023-05-19T09:26:40.344Z,99506.18
2023-05-19T09:29:14.918Z,99506.85
2023-05-19T09:31:52.448Z,99508.16
2023-05-19T09:34:21.645Z,99501.23
2023-05-19T09:36:53.878Z,99500.65
2023-05-19T09:39:25.925Z,99502.05
2023-05-19T09:41:54.351Z,99501.84
2023-05-19T09:44:22.872Z,99498.52
2023-05-19T09:46:54.148Z,99497.88
2023-05-19T09:49:31.682Z,99495.11
2023-05-19T09:52:02.434Z,99496.70
2023-05-19T09:54:30.137Z,99498.60
2023-05-19T09:57:04.150Z,99503.36
2023-05-19T09:59:33.524Z,99496.88
2023-05-19T10:02:01.603Z,99498.02
2023-05-19T10:04:29.782Z,99501.45
2023-05-19T10:07:01.217Z,99505.19
2023-05-19T10:09:30.218Z,99499.83
2023-05-19T10:11:58.335Z,99504.20
2023-05-19T10:14:27.119Z,99505.31
2023-05-19T10:16:58.063Z,99498.54
2023-05-19T10:19:27.277Z,99491.29
2023-05-19T10:21:55.507Z,99483.63
2023-05-19T10:24:23.173Z,99484.45
2023-05-19T10:27:17.450Z,99484.56
2023-05-19T10:29:48.493Z,99488.35
2023-05-19T10:32:18.794Z,99487.59
2023-05-19T10:35:16.070Z,99489.21
2023-05-19T10:37:53.779Z,99494.63
2023-05-19T10:40:52.051Z,99492.02
2023-05-19T10:44:08.257Z,99496.69
2023-05-19T10:46:36.292Z,99491.89
2023-05-19T10:49:04.093Z,99490.79
2023-05-19T10:51:32.411Z,99491.90
2023-05-19T10:54:03.410Z,99492.46
2023-05-19T10:56:36.505Z,99481.45
2023-05-19T10:59:04.154Z,99478.04
2023-05-19T11:01:33.577Z,99475.49
2023-05-19T11:04:16.073Z,99467.15
2023-05-19T11:06:44.133Z,99466.14
2023-05-19T11:09:14.068Z,99456.58
2023-05-19T11:11:52.128Z,99456.52
2023-05-19T11:14:21.293Z,99453.48
2023-05-19T11:16:52.114Z,99450.48
2023-05-19T11:19:29.350Z,99458.38
2023-05-19T11:21:57.993Z,99461.71
2023-05-19T11:24:44.906Z,99462.00
2023-05-19T11:27:23.897Z,99462.77
2023-05-19T11:29:52.171Z,99461.32
2023-05-19T11:32:23.872Z,99465.56
2023-05-19T11:34:51.906Z,99456.76
2023-05-19T11:37:19.336Z,99450.01
2023-05-19T11:39:47.646Z,99442.71
2023-05-19T11:42:15.139Z,99441.54
2023-05-19T11:44:46.455Z,99444.92
2023-05-19T11:47:14.605Z,99443.48
2023-05-19T11:49:46.027Z,99442.25
2023-05-19T11:52:14.236Z,99437.79
2023-05-19T11:54:44.560Z,99439.85
2023-05-19T11:57:12.307Z,99440.86
2023-05-19T11:59:44.280Z,99434.17
2023-05-19T12:02:21.830Z,99435.63
2023-05-19T12:04:52.090Z,99438.48
2023-05-19T12:07:23.223Z,99440.20
2023-05-19T12:09:52.037Z,99439.16
2023-05-19T12:12:20.420Z,99439.36
2023-05-19T12:14:50.732Z,99436.46
2023-05-19T12:17:21.566Z,99431.24
2023-05-19T12:19:49.377Z,99430.13
2023-05-19T12:22:17.423Z,99434.92
2023-05-19T12:24:45.524Z,99432.06
2023-05-19T12:27:20.813Z,99431.39
2023-05-19T12:29:54.941Z,99433.05
2023-05-19T12:32:26.628Z,99442.27
2023-05-19T12:34:55.908Z,99443.17
2023-05-19T12:37:26.605Z,99451.39
2023-05-19T12:39:54.685Z,99454.30
2023-05-19T12:42:22.955Z,99456.21
2023-05-19T12:44:52.758Z,99462.27
2023-05-19T12:47:20.645Z,99466.83
2023-05-19T12:50:01.308Z,99466.88
2023-05-19T12:52:29.657Z,99467.36
2023-05-19T12:55:01.637Z,99472.85
2023-05-19T12:57:32.894Z,99475.35
2023-05-19T13:00:01.214Z,99475.56
2023-05-19T13:02:29.079Z,99477.36
2023-05-19T13:04:59.155Z,99473.16
2023-05-19T13:07:26.762Z,99479.81
2023-05-19T13:09:54.887Z,99478.83
2023-05-19T13:12:22.672Z,99476.36
2023-05-19T13:14:50.317Z,99479.70
2023-05-19T13:17:18.382Z,99477.45
2023-05-19T13:19:46.507Z,99474.41
2023-05-19T13:22:14.424Z,99475.08
2023-05-19T13:24:41.983Z,99472.16
2023-05-19T13:27:09.818Z,99469.38
2023-05-19T13:29:38.050Z,99466.92
2023-05-19T13:32:06.346Z,99467.29
2023-05-19T13:34:33.963Z,99465.20
2023-05-19T13:37:01.851Z,99461.86
2023-05-19T13:39:30.107Z,99462.47
2023-05-19T13:41:58.552Z,99468.02
2023-05-19T13:44:26.450Z,99468.70
2023-05-19T13:46:54.138Z,99478.88
2023-05-19T13:49:21.977Z,99482.92
2023-05-19T13:51:50.268Z,99494.46
2023-05-19T13:54:18.428Z,99504.25
2023-05-19T13:56:50.005Z,99501.51
2023-05-19T13:59:17.760Z,99504.44
2023-05-19T14:01:45.993Z,99507.49
2023-05-19T14:04:14.610Z,99504.24
2023-05-19T14:06:42.470Z,99508.13
2023-05-19T14:09:10.441Z,99510.75
2023-05-19T14:11:38.106Z,99510.17
2023-05-19T14:14:06.004Z,99509.77
2023-05-19T14:16:34.573Z,99510.44
2023-05-19T14:19:03.600Z,99510.73
2023-05-19T14:21:31.613Z,99515.58
2023-05-19T14:23:59.584Z,99509.70
2023-05-19T14:26:28.632Z,99515.94
2023-05-19T14:28:59.726Z,99515.48
2023-05-19T14:31:27.223Z,99517.95
2023-05-19T14:33:55.549Z,99514.67
2023-05-19T14:36:23.314Z,99514.20
2023-05-19T14:38:50.984Z,99512.55
2023-05-19T14:41:18.642Z,99515.05
2023-05-19T14:43:47.088Z,99516.59
2023-05-19T14:46:16.085Z,99522.42
2023-05-19T14:48:43.488Z,99523.96
2023-05-19T14:51:11.130Z,99524.35
2023-05-19T14:53:38.788Z,99526.02
2023-05-19T14:56:07.578Z,99528.23
2023-05-19T14:58:35.266Z,99527.88
2023-05-19T15:01:02.827Z,99526.08
2023-05-19T15:03:31.116Z,99530.14
2023-05-19T15:05:58.843Z,99530.30
2023-05-19T15:08:26.727Z,99527.54
2023-05-19T15:10:54.876Z,99531.88
2023-05-19T15:13:22.690Z,99530.20
2023-05-19T15:16:08.270Z,99530.75
2023-05-19T15:18:44.233Z,99526.50
2023-05-19T15:21:13.210Z,99530.58
2023-05-19T15:23:41.343Z,99529.69
2023-05-19T15:26:09.108Z,99531.21
2023-05-19T15:28:36.560Z,99533.71
2023-05-19T15:31:04.244Z,99534.66
2023-05-19T15:33:32.202Z,99539.61
2023-05-19T15:35:59.958Z,99539.44
2023-05-19T15:38:29.233Z,99542.91
2023-05-19T15:40:57.743Z,99544.48
2023-05-19T15:43:25.707Z,99546.27
2023-05-19T15:45:55.466Z,99546.16
2023-05-19T15:48:23.796Z,99547.80
2023-05-19T15:50:52.381Z,99550.27
2023-05-19T15:53:20.623Z,99548.45
2023-05-19T15:55:48.321Z,99550.27
2023-05-19T15:58:17.150Z,99551.77
2023-05-19T16:00:44.667Z,99551.79
2023-05-19T16:03:13.281Z,99547.85
2023-05-19T16:05:43.675Z,99554.13
2023-05-19T16:08:11.239Z,99551.27
2023-05-19T16:10:39.004Z,99552.00
2023-05-19T16:13:06.615Z,99553.63
2023-05-19T16:15:35.913Z,99553.59
2023-05-19T16:18:03.679Z,99555.61
2023-05-19T16:20:31.740Z,99554.23
2023-05-19T16:22:59.789Z,99557.60
2023-05-19T16:25:27.634Z,99560.16
2023-05-19T16:27:55.393Z,99562.00
2023-05-19T16:30:23.465Z,99563.40
2023-05-19T16:32:51.083Z,99566.27
2023-05-19T16:35:18.714Z,99566.33
2023-05-19T16:37:46.552Z,99568.58
2023-05-19T16:40:14.315Z,99567.78
2023-05-19T16:42:42.698Z,99571.97
2023-05-19T16:45:10.773Z,99570.70
2023-05-19T16:47:38.708Z,99571.75
2023-05-19T16:50:07.711Z,99572.92
2023-05-19T16:52:37.063Z,99575.21
2023-05-19T16:55:09.247Z,99576.89
2023-05-19T16:57:36.953Z,99580.77
2023-05-19T17:00:05.031Z,99579.77
2023-05-19T17:02:33.744Z,99587.20
2023-05-19T17:05:01.480Z,99590.08
2023-05-19T17:07:29.682Z,99593.75
2023-05-19T17:09:57.478Z,99592.08
2023-05-19T17:12:25.618Z,99596.20
2023-05-19T17:14:54.995Z,99594.54
2023-05-19T17:17:22.752Z,99595.33
2023-05-19T17:19:50.621Z,99599.89
2023-05-19T17:22:18.109Z,99600.42
2023-05-19T17:24:46.144Z,99598.52
2023-05-19T17:27:13.705Z,99598.21
2023-05-19T17:29:41.366Z,99601.13
2023-05-19T17:32:08.848Z,99601.76
2023-05-19T17:34:36.814Z,99602.73
2023-05-19T17:37:04.726Z,99608.70
2023-05-19T17:39:32.317Z,99606.38
2023-05-19T17:42:00.377Z,99604.57
2023-05-19T17:44:27.845Z,99611.23
2023-05-19T17:46:55.471Z,99614.66
2023-05-19T17:49:24.706Z,99615.92
2023-05-19T17:51:52.811Z,99617.48
2023-05-19T17:54:21.622Z,99614.48
2023-05-19T17:56:49.165Z,99616.80
2023-05-19T17:59:17.250Z,99618.48
2023-05-19T18:01:45.146Z,99617.05
2023-05-19T18:04:15.953Z,99618.83
2023-05-19T18:06:44.694Z,99617.95
2023-05-19T18:09:13.310Z,99620.46
2023-05-19T18:11:41.154Z,99616.12
2023-05-19T18:14:08.799Z,99616.65
2023-05-19T18:16:36.213Z,99615.43
2023-05-19T18:19:03.840Z,99611.96
2023-05-19T18:21:31.779Z,99617.23
2023-05-19T18:24:03.330Z,99615.38
2023-05-19T18:26:31.815Z,99620.48
2023-05-19T18:29:03.010Z,99617.73
2023-05-19T18:31:30.763Z,99619.47
2023-05-19T18:33:58.174Z,99620.71
2023-05-19T18:36:26.042Z,99622.48
2023-05-19T18:38:55.392Z,99621.86
2023-05-19T18:41:23.318Z,99628.73
2023-05-19T18:43:50.875Z,99631.40
2023-05-19T18:46:18.691Z,99630.59
2023-05-19T18:48:46.441Z,99627.96
2023-05-19T18:51:16.311Z,99631.64
2023-05-19T18:53:43.977Z,99631.71
2023-05-19T18:56:12.046Z,99636.54
2023-05-19T18:58:39.505Z,99639.14
2023-05-19T19:01:07.370Z,99638.50
2023-05-19T19:03:34.867Z,99640.13
2023-05-19T19:06:02.591Z,99638.63
2023-05-19T19:08:34.758Z,99640.92
2023-05-19T19:11:02.437Z,99642.60
2023-05-19T19:13:30.178Z,99646.34
2023-05-19T19:15:57.845Z,99645.33
2023-05-19T19:18:26.445Z,99644.64
2023-05-19T19:20:55.831Z,99644.38
2023-05-19T19:23:24.206Z,99643.14
2023-05-19T19:25:51.682Z,99642.98
2023-05-19T19:28:19.327Z,99639.25
2023-05-19T19:30:47.916Z,99636.77
2023-05-19T19:33:16.028Z,99635.43
2023-05-19T19:35:46.982Z,99634.41
2023-05-19T19:38:14.722Z,99635.55
2023-05-19T19:40:42.286Z,99637.23
2023-05-19T19:43:10.003Z,99638.64
2023-05-19T19:45:39.810Z,99639.34
2023-05-19T19:48:07.844Z,99641.13
2023-05-19T19:50:35.712Z,99642.23
2023-05-19T19:53:03.731Z,99647.77
2023-05-19T19:55:31.094Z,99644.88
2023-05-19T19:57:58.385Z,99644.34
2023-05-19T20:00:25.889Z,99643.70
2023-05-19T20:03:03.686Z,99644.14
2023-05-19T20:05:32.537Z,99645.97
2023-05-19T20:07:59.556Z,99647.11
2023-05-19T20:10:26.848Z,99647.23
2023-05-19T20:12:54.538Z,99648.66
2023-05-19T20:15:21.940Z,99647.01
2023-05-19T20:17:49.324Z,99647.06
2023-05-19T20:20:16.930Z,99649.00
2023-05-19T20:22:47.128Z,99651.97
2023-05-19T20:25:14.789Z,99656.58
2023-05-19T20:27:41.943Z,99652.06
2023-05-19T20:30:09.798Z,99654.13
2023-05-19T20:32:37.445Z,99657.41
2023-05-19T20:35:05.340Z,99659.39
2023-05-19T20:37:32.689Z,99661.82
2023-05-19T20:39:59.816Z,99663.23
2023-05-19T20:42:27.194Z,99661.06
2023-05-19T20:44:54.655Z,99660.23
2023-05-19T20:47:22.006Z,99658.88
2023-05-19T20:49:49.564Z,99658.23
2023-05-19T20:52:17.132Z,99657.26
2023-05-19T20:54:45.494Z,99660.82
2023-05-19T20:57:12.958Z,99659.19
2023-05-19T20:59:40.344Z,99659.30
2023-05-19T21:02:08.603Z,99658.05
2023-05-19T21:04:36.592Z,99658.39
2023-05-19T21:07:04.001Z,99659.56
2023-05-19T21:09:31.604Z,99659.50
2023-05-19T21:11:59.080Z,99660.52
2023-05-19T21:14:26.898Z,99659.65
2023-05-19T21:16:54.691Z,99658.58
2023-05-19T21:19:23.335Z,99657.66
2023-05-19T21:21:51.428Z,99658.09
2023-05-19T21:24:18.714Z,99652.71
2023-05-19T21:26:46.286Z,99655.05
2023-05-19T21:29:13.621Z,99657.00
2023-05-19T21:31:41.346Z,99657.04
2023-05-19T21:34:08.699Z,99657.48
2023-05-19T21:36:36.360Z,99661.83
2023-05-19T21:39:04.731Z,99662.02
2023-05-19T21:41:32.809Z,99668.34
2023-05-19T21:44:00.273Z,99671.81
2023-05-19T21:46:29.418Z,99671.50
2023-05-19T21:48:57.032Z,99671.05
2023-05-19T21:51:24.278Z,99672.98
2023-05-19T21:53:51.779Z,99672.27
2023-05-19T21:56:19.295Z,99673.50
2023-05-19T21:58:46.276Z,99677.48
2023-05-19T22:01:14.625Z,99681.71
2023-05-19T22:03:42.350Z,99681.94
2023-05-19T22:06:09.742Z,99679.16
2023-05-19T22:08:37.199Z,99680.45
2023-05-19T22:11:05.158Z,99683.20
2023-05-19T22:13:32.466Z,99679.14
2023-05-19T22:16:00.242Z,99680.75
2023-05-19T22:18:27.277Z,99676.36
2023-05-19T22:20:54.581Z,99677.66
2023-05-19T22:23:21.885Z,99678.55
2023-05-19T22:25:49.409Z,99681.87
2023-05-19T22:28:16.747Z,99686.55
2023-05-19T22:30:44.623Z,99683.58
2023-05-19T22:33:12.457Z,99687.80
2023-05-19T22:35:39.834Z,99686.52
2023-05-19T22:38:08.822Z,99686.31
2023-05-19T22:40:38.155Z,99686.48
2023-05-19T22:43:05.368Z,99686.34
2023-05-19T22:45:34.084Z,99684.05
2023-05-19T22:48:02.087Z,99683.33
2023-05-19T22:50:29.170Z,99685.99
2023-05-19T22:52:56.473Z,99687.78
2023-05-19T22:55:23.779Z,99687.17
2023-05-19T22:57:51.751Z,99687.27
2023-05-19T23:00:21.258Z,99686.08
2023-05-19T23:02:48.676Z,99688.34
2023-05-19T23:05:19.040Z,99686.08
2023-05-19T23:07:46.179Z,99687.84
2023-05-19T23:10:13.329Z,99691.89
2023-05-19T23:12:40.478Z,99688.98
2023-05-19T23:15:08.857Z,99687.13
2023-05-19T23:17:36.554Z,99690.33
2023-05-19T23:20:04.592Z,99689.13
2023-05-19T23:22:31.744Z,99691.41
2023-05-19T23:24:59.235Z,99694.11
2023-05-19T23:27:26.962Z,99692.91
2023-05-19T23:29:54.622Z,99690.47
2023-05-19T23:32:23.028Z,99691.16
2023-05-19T23:34:50.046Z,99688.90
2023-05-19T23:37:17.506Z,99687.48
2023-05-19T23:39:44.654Z,99691.05
2023-05-19T23:42:13.544Z,99691.28
2023-05-19T23:44:40.900Z,99688.50
2023-05-19T23:47:08.423Z,99689.18
2023-05-19T23:49:36.123Z,99687.55
2023-05-19T23:52:03.438Z,99688.52
2023-05-19T23:54:31.474Z,99692.23
2023-05-19T23:56:58.906Z,99691.70
2023-05-19T23:59:26.269Z,99693.05
